Loudon, New Hampshire
Current Conditions -  °F | °C
As of 2:51 PM on Tuesday 25 Nov 2014 (Local Time) from KCON Reporting Station
Clear Clear  
Wind Chill: 13°   Ceiling: Unl
Heat Index: 13°   Visibility: 10mi
Dew Point: -5°   Wind: 10mph
Humidity: 29%   Direction: 240°WSW
Pressure: 29.86"   Gusts: 18mph
Location:  43.18°N, 71.56°W
Report Text: KCON 251951Z AUTO 24009G16KT 10SM CLR 13/M05 A2986 RMK AO2 SLP113 T01281050
Loading
Personal Weather Stations






























Interactive Weather Map New forecast layout! Learn more

10-Day Weather Forecast

Advertisements
Track Severe Weather on mobile